Time,TemperatureF,DewpointF,PressureIn,WindDirection,WindDirectionDegrees,WindSpeedMPH,WindSpeedGustMPH,Humidity,HourlyPrecipIn,Conditions,Clouds,dailyrainin,SolarRadiationWatts/m^2,SoftwareType,DateUTC
2013-07-11 00:02:00,76.0,68.0,29.87,SW,226,1.0,3.0,77,0.00,,,0.11,0.000000,,2013-07-11 04:02:00,
2013-07-11 00:32:00,75.0,67.0,29.88,SSW,195,1.0,3.0,76,0.00,,,0.11,0.000000,,2013-07-11 04:32:00,
2013-07-11 00:42:00,75.0,67.0,29.88,WSW,237,2.0,4.0,75,0.00,,,0.11,0.000000,,2013-07-11 04:42:00,
2013-07-11 00:53:00,76.0,67.0,29.87,SSW,205,2.0,5.0,73,0.00,,,0.11,0.000000,,2013-07-11 04:53:00,
2013-07-11 01:02:00,75.0,66.0,29.87,SSW,213,2.0,5.0,74,0.00,,,0.11,0.000000,,2013-07-11 05:02:00,
2013-07-11 01:22:00,75.0,67.0,29.88,SW,222,2.0,4.0,75,0.00,,,0.11,0.000000,,2013-07-11 05:22:00,
2013-07-11 01:32:00,75.0,67.0,29.88,SW,231,3.0,6.0,76,0.00,,,0.11,0.000000,,2013-07-11 05:32:00,
2013-07-11 01:43:00,74.0,67.0,29.88,SW,219,1.0,3.0,78,0.00,,,0.11,0.000000,,2013-07-11 05:43:00,
2013-07-11 01:52:00,74.0,67.0,29.88,SW,221,3.0,5.0,78,0.00,,,0.11,0.000000,,2013-07-11 05:52:00,
2013-07-11 02:01:00,74.0,67.0,29.88,WSW,245,2.0,3.0,78,0.00,,,0.11,0.000000,,2013-07-11 06:01:00,
2013-07-11 02:12:00,74.0,67.0,29.87,SSW,212,2.0,4.0,79,0.00,,,0.11,0.000000,,2013-07-11 06:12:00,
2013-07-11 02:22:00,74.0,67.0,29.87,SW,224,2.0,5.0,79,0.00,,,0.11,0.000000,,2013-07-11 06:22:00,
2013-07-11 02:32:00,73.0,66.0,29.87,WSW,249,2.0,4.0,80,0.00,,,0.11,0.000000,,2013-07-11 06:32:00,
2013-07-11 02:43:00,73.0,66.0,29.87,SW,231,3.0,5.0,80,0.00,,,0.11,0.000000,,2013-07-11 06:43:00,
2013-07-11 02:52:00,73.0,66.0,29.87,WSW,238,2.0,4.0,80,0.00,,,0.11,0.000000,,2013-07-11 06:52:00,
2013-07-11 03:22:00,73.0,67.0,29.86,WSW,244,2.0,3.0,81,0.00,,,0.11,0.000000,,2013-07-11 07:22:00,
2013-07-11 03:32:00,73.0,67.0,29.86,WSW,254,1.0,2.0,82,0.00,,,0.11,0.000000,,2013-07-11 07:32:00,
2013-07-11 03:45:00,73.0,67.0,29.86,SW,232,1.0,2.0,82,0.00,,,0.11,0.000000,,2013-07-11 07:45:00,
2013-07-11 03:53:00,73.0,68.0,29.86,WSW,244,1.0,2.0,83,0.00,,,0.11,0.000000,,2013-07-11 07:53:00,
2013-07-11 04:02:00,73.0,68.0,29.86,WSW,251,1.0,2.0,83,0.00,,,0.11,0.000000,,2013-07-11 08:02:00,
2013-07-11 04:22:00,72.0,67.0,29.86,NNW,329,0.0,0.0,84,0.00,,,0.11,0.000000,,2013-07-11 08:22:00,
2013-07-11 04:34:00,72.0,67.0,29.86,WSW,250,0.0,1.0,85,0.00,,,0.11,0.000000,,2013-07-11 08:34:00,
2013-07-11 04:43:00,72.0,67.0,29.86,South,174,0.0,0.0,85,0.00,,,0.11,0.000000,,2013-07-11 08:43:00,
2013-07-11 05:03:00,71.0,67.0,29.86,SW,218,0.0,1.0,87,0.00,,,0.11,0.000000,,2013-07-11 09:03:00,
2013-07-11 05:33:00,71.0,67.0,29.87,SW,225,0.0,1.0,87,0.00,,,0.11,0.000000,,2013-07-11 09:33:00,
2013-07-11 05:43:00,71.0,67.0,29.87,South,177,0.0,0.0,87,0.00,,,0.11,0.000000,,2013-07-11 09:43:00,
2013-07-11 05:53:00,71.0,67.0,29.88,North,0,0.0,0.0,87,0.00,,,0.11,0.000000,,2013-07-11 09:53:00,
2013-07-11 06:43:00,72.0,68.0,29.89,SSW,195,0.0,0.0,88,0.00,,,0.11,13.000000,,2013-07-11 10:43:00,
2013-07-11 06:52:00,72.0,68.0,29.89,SSW,195,0.0,0.0,88,0.00,,,0.11,13.000000,,2013-07-11 10:52:00,
2013-07-11 07:02:00,72.0,68.0,29.90,SW,227,1.0,2.0,88,0.00,,,0.11,14.000000,,2013-07-11 11:02:00,
2013-07-11 07:22:00,72.0,68.0,29.91,WSW,258,1.0,1.0,88,0.00,,,0.11,13.000000,,2013-07-11 11:22:00,
2013-07-11 07:33:00,72.0,68.0,29.91,WSW,253,1.0,3.0,88,0.01,,,0.12,15.000000,,2013-07-11 11:33:00,
2013-07-11 07:43:00,72.0,68.0,29.91,South,169,0.0,2.0,88,0.02,,,0.13,28.000000,,2013-07-11 11:43:00,
2013-07-11 07:53:00,72.0,68.0,29.91,WSW,249,1.0,2.0,88,0.02,,,0.13,38.000000,,2013-07-11 11:53:00,
2013-07-11 08:01:00,72.0,68.0,29.91,SW,230,0.0,1.0,88,0.02,,,0.13,45.000000,,2013-07-11 12:01:00,
2013-07-11 08:12:00,72.0,69.0,29.91,South,178,0.0,1.0,89,0.02,,,0.13,49.000000,,2013-07-11 12:12:00,
2013-07-11 08:22:00,72.0,69.0,29.92,SW,220,0.0,1.0,89,0.02,,,0.13,84.000000,,2013-07-11 12:22:00,
2013-07-11 08:33:00,72.0,69.0,29.91,West,276,0.0,1.0,89,0.02,,,0.13,100.000000,,2013-07-11 12:33:00,
2013-07-11 08:43:00,72.0,68.0,29.92,WNW,302,0.0,1.0,88,0.00,,,0.13,121.000000,,2013-07-11 12:43:00,
2013-07-11 08:55:00,73.0,69.0,29.92,WNW,282,1.0,2.0,88,0.00,,,0.13,121.000000,,2013-07-11 12:55:00,
2013-07-11 09:02:00,72.0,68.0,29.92,WNW,286,3.0,4.0,88,0.00,,,0.13,158.000000,,2013-07-11 13:02:00,
2013-07-11 09:13:00,73.0,69.0,29.92,WNW,294,1.0,3.0,88,0.00,,,0.13,164.000000,,2013-07-11 13:13:00,
2013-07-11 09:34:00,73.0,69.0,29.92,WNW,283,2.0,4.0,86,0.00,,,0.13,154.000000,,2013-07-11 13:34:00,
2013-07-11 10:05:00,72.0,67.0,29.93,NW,309,1.0,2.0,85,0.00,,,0.13,112.000000,,2013-07-11 14:05:00,
2013-07-11 10:15:00,72.0,67.0,29.93,WNW,303,2.0,3.0,84,0.00,,,0.13,110.000000,,2013-07-11 14:15:00,
2013-07-11 10:25:00,72.0,67.0,29.93,WNW,303,2.0,3.0,84,0.00,,,0.13,110.000000,,2013-07-11 14:25:00,
2013-07-11 10:35:00,72.0,67.0,29.93,WNW,303,2.0,3.0,84,0.00,,,0.13,110.000000,,2013-07-11 14:35:00,
2013-07-11 10:45:00,72.0,67.0,29.93,WNW,303,2.0,3.0,84,0.00,,,0.13,110.000000,,2013-07-11 14:45:00,
2013-07-11 10:54:00,72.0,66.0,29.94,WNW,302,2.0,4.0,81,0.00,,,0.13,282.000000,,2013-07-11 14:54:00,
2013-07-11 11:06:00,73.0,66.0,29.94,WNW,292,1.0,3.0,80,0.00,,,0.13,292.000000,,2013-07-11 15:06:00,
2013-07-11 11:15:00,73.0,66.0,29.94,North,352,1.0,3.0,80,0.00,,,0.13,309.000000,,2013-07-11 15:15:00,
2013-07-11 11:25:00,73.0,66.0,29.94,North,352,1.0,3.0,80,0.00,,,0.13,309.000000,,2013-07-11 15:25:00,
2013-07-11 11:38:00,73.0,66.0,29.93,NW,316,1.0,3.0,78,0.00,,,0.13,315.000000,,2013-07-11 15:38:00,
2013-07-11 11:46:00,74.0,66.0,29.93,NNW,347,1.0,3.0,76,0.00,,,0.13,444.000000,,2013-07-11 15:46:00,
2013-07-11 12:06:00,74.0,66.0,29.93,NNW,347,1.0,3.0,76,0.00,,,0.13,444.000000,,2013-07-11 16:06:00,
2013-07-11 12:35:00,77.0,66.0,29.92,WNW,296,2.0,6.0,69,0.00,,,0.05,950.000000,,2013-07-11 16:35:00,
2013-07-11 12:48:00,78.0,65.0,29.92,NNW,341,2.0,5.0,65,0.00,,,0.02,892.000000,,2013-07-11 16:48:00,
2013-07-11 13:03:00,79.0,63.0,29.92,NW,308,1.0,4.0,59,0.00,,,0.02,1005.000000,,2013-07-11 17:03:00,
2013-07-11 13:16:00,80.0,65.0,29.92,SSW,200,2.0,4.0,61,0.00,,,0.02,872.000000,,2013-07-11 17:16:00,
2013-07-11 13:38:00,79.0,63.0,29.91,NE,44,1.0,5.0,59,0.00,,,0.02,675.000000,,2013-07-11 17:38:00,
2013-07-11 13:47:00,79.0,63.0,29.91,NE,44,1.0,5.0,59,0.00,,,0.02,675.000000,,2013-07-11 17:47:00,
2013-07-11 14:16:00,81.0,64.0,29.91,NE,36,1.0,3.0,57,0.00,,,0.02,822.000000,,2013-07-11 18:16:00,
2013-07-11 14:24:00,81.0,64.0,29.91,NE,36,1.0,3.0,57,0.00,,,0.02,822.000000,,2013-07-11 18:24:00,
2013-07-11 14:35:00,81.0,64.0,29.91,NE,36,1.0,3.0,57,0.00,,,0.02,822.000000,,2013-07-11 18:35:00,
2013-07-11 14:47:00,81.0,66.0,29.91,NW,324,1.0,4.0,60,0.00,,,0.02,727.000000,,2013-07-11 18:47:00,
2013-07-11 14:54:00,81.0,66.0,29.91,NW,324,1.0,4.0,60,0.00,,,0.02,727.000000,,2013-07-11 18:54:00,
2013-07-11 15:05:00,82.0,66.0,29.90,NNE,16,2.0,5.0,58,0.00,,,0.02,649.000000,,2013-07-11 19:05:00,
2013-07-11 15:25:00,81.0,66.0,29.91,NW,313,1.0,1.0,61,0.00,,,0.02,477.000000,,2013-07-11 19:25:00,
2013-07-11 15:39:00,81.0,65.0,29.90,NW,311,2.0,3.0,59,0.00,,,0.02,669.000000,,2013-07-11 19:39:00,
2013-07-11 15:45:00,82.0,65.0,29.89,West,274,2.0,4.0,57,0.00,,,0.02,638.000000,,2013-07-11 19:45:00,
2013-07-11 15:56:00,82.0,65.0,29.89,NW,305,1.0,4.0,56,0.00,,,0.02,576.000000,,2013-07-11 19:56:00,
2013-07-11 16:07:00,82.0,65.0,29.89,NW,305,1.0,4.0,56,0.00,,,0.02,576.000000,,2013-07-11 20:07:00,
2013-07-11 16:13:00,82.0,65.0,29.89,NW,305,1.0,4.0,56,0.00,,,0.02,576.000000,,2013-07-11 20:13:00,
2013-07-11 16:38:00,82.0,66.0,29.88,NE,52,1.0,2.0,59,0.00,,,0.02,541.000000,,2013-07-11 20:38:00,
2013-07-11 16:48:00,82.0,65.0,29.88,NW,309,2.0,4.0,57,0.00,,,0.02,535.000000,,2013-07-11 20:48:00,
2013-07-11 16:54:00,82.0,66.0,29.88,West,281,3.0,5.0,58,0.00,,,0.02,481.000000,,2013-07-11 20:54:00,
2013-07-11 17:05:00,83.0,66.0,29.88,North,8,0.0,1.0,57,0.00,,,0.02,437.000000,,2013-07-11 21:05:00,
2013-07-11 17:15:00,83.0,65.0,29.89,NNE,20,1.0,3.0,55,0.00,,,0.02,295.000000,,2013-07-11 21:15:00,
2013-07-11 17:45:00,82.0,65.0,29.89,NNW,339,0.0,1.0,56,0.00,,,0.02,392.000000,,2013-07-11 21:45:00,
2013-07-11 18:35:00,81.0,67.0,29.89,NNE,14,0.0,0.0,63,0.00,,,0.02,165.000000,,2013-07-11 22:35:00,
2013-07-11 18:47:00,82.0,68.0,29.89,East,82,0.0,2.0,63,0.00,,,0.02,194.000000,,2013-07-11 22:47:00,
2013-07-11 18:54:00,81.0,67.0,29.89,ENE,70,0.0,1.0,63,0.00,,,0.02,86.000000,,2013-07-11 22:54:00,
2013-07-11 19:06:00,80.0,69.0,29.89,North,10,0.0,0.0,69,0.00,,,0.02,68.000000,,2013-07-11 23:06:00,
2013-07-11 19:26:00,79.0,70.0,29.90,ENE,68,0.0,1.0,73,0.00,,,0.02,78.000000,,2013-07-11 23:26:00,
2013-07-11 19:36:00,79.0,71.0,29.90,North,0,0.0,0.0,76,0.00,,,0.02,61.000000,,2013-07-11 23:36:00,
2013-07-11 19:47:00,79.0,70.0,29.90,North,0,0.0,0.0,75,0.00,,,0.02,50.000000,,2013-07-11 23:47:00,
2013-07-11 19:55:00,78.0,71.0,29.91,North,0,0.0,0.0,78,0.00,,,0.02,41.000000,,2013-07-11 23:55:00,
2013-07-11 20:15:00,77.0,70.0,29.91,North,0,0.0,0.0,78,0.00,,,0.02,29.000000,,2013-07-12 00:15:00,
2013-07-11 20:26:00,77.0,70.0,29.92,North,0,0.0,0.0,79,0.00,,,0.02,24.000000,,2013-07-12 00:26:00,
2013-07-11 20:37:00,76.0,69.0,29.92,North,0,0.0,0.0,80,0.00,,,0.02,12.000000,,2013-07-12 00:37:00,
2013-07-11 20:45:00,76.0,70.0,29.92,North,0,0.0,0.0,82,0.00,,,0.02,12.000000,,2013-07-12 00:45:00,
2013-07-11 20:55:00,75.0,69.0,29.92,North,0,0.0,0.0,83,0.00,,,0.02,6.000000,,2013-07-12 00:55:00,
2013-07-11 21:05:00,75.0,70.0,29.93,North,0,0.0,0.0,84,0.00,,,0.02,4.000000,,2013-07-12 01:05:00,
2013-07-11 21:37:00,74.0,69.0,29.93,North,0,0.0,0.0,85,0.00,,,0.02,0.000000,,2013-07-12 01:37:00,
2013-07-11 22:16:00,73.0,69.0,29.94,ENE,68,0.0,0.0,87,0.00,,,0.02,0.000000,,2013-07-12 02:16:00,
2013-07-11 22:45:00,72.0,69.0,29.94,North,0,0.0,0.0,89,0.00,,,0.02,0.000000,,2013-07-12 02:45:00,
2013-07-11 22:54:00,71.0,68.0,29.94,North,0,0.0,0.0,89,0.00,,,0.02,0.000000,,2013-07-12 02:54:00,
2013-07-11 23:04:00,71.0,68.0,29.94,North,0,0.0,0.0,89,0.00,,,0.02,0.000000,,2013-07-12 03:04:00,
2013-07-11 23:37:00,71.0,68.0,29.94,North,0,0.0,0.0,90,0.00,,,0.02,0.000000,,2013-07-12 03:37:00,
2013-07-11 23:45:00,70.0,67.0,29.94,NNW,342,0.0,1.0,90,0.00,,,0.02,0.000000,,2013-07-12 03:45:00,
2013-07-11 23:54:00,70.0,67.0,29.94,North,350,0.0,1.0,89,0.00,,,0.02,0.000000,,2013-07-12 03:54:00,